sensor_id;sensor_type;location;lat;lon;timestamp;P1;durP1;ratioP1;P2;durP2;ratioP2
49578;SDS011;35483;50.828;3.228;2023-03-01T00:01:48;11.50;;;10.23;;
49578;SDS011;35483;50.828;3.228;2023-03-01T00:04:13;10.73;;;9.65;;
49578;SDS011;35483;50.828;3.228;2023-03-01T00:06:39;10.75;;;9.70;;
49578;SDS011;35483;50.828;3.228;2023-03-01T00:09:07;11.80;;;9.98;;
49578;SDS011;35483;50.828;3.228;2023-03-01T00:11:34;10.95;;;9.82;;
49578;SDS011;35483;50.828;3.228;2023-03-01T00:14:00;11.13;;;10.05;;
49578;SDS011;35483;50.828;3.228;2023-03-01T00:16:30;11.30;;;10.07;;
49578;SDS011;35483;50.828;3.228;2023-03-01T00:19:03;11.27;;;10.05;;
49578;SDS011;35483;50.828;3.228;2023-03-01T00:21:29;10.00;;;9.10;;
49578;SDS011;35483;50.828;3.228;2023-03-01T00:23:55;12.68;;;10.80;;
49578;SDS011;35483;50.828;3.228;2023-03-01T00:26:22;10.98;;;9.98;;
49578;SDS011;35483;50.828;3.228;2023-03-01T00:28:49;10.93;;;9.88;;
49578;SDS011;35483;50.828;3.228;2023-03-01T00:31:16;11.98;;;10.32;;
49578;SDS011;35483;50.828;3.228;2023-03-01T00:33:47;11.95;;;10.02;;
49578;SDS011;35483;50.828;3.228;2023-03-01T00:36:14;11.25;;;10.10;;
49578;SDS011;35483;50.828;3.228;2023-03-01T00:38:45;11.60;;;10.40;;
49578;SDS011;35483;50.828;3.228;2023-03-01T00:41:14;12.90;;;10.00;;
49578;SDS011;35483;50.828;3.228;2023-03-01T00:43:41;10.88;;;9.70;;
49578;SDS011;35483;50.828;3.228;2023-03-01T00:46:09;11.70;;;10.57;;
49578;SDS011;35483;50.828;3.228;2023-03-01T00:48:36;12.23;;;10.23;;
49578;SDS011;35483;50.828;3.228;2023-03-01T00:51:09;11.60;;;10.40;;
49578;SDS011;35483;50.828;3.228;2023-03-01T00:53:40;12.90;;;11.52;;
49578;SDS011;35483;50.828;3.228;2023-03-01T00:56:07;11.35;;;10.15;;
49578;SDS011;35483;50.828;3.228;2023-03-01T00:58:34;12.20;;;10.90;;
49578;SDS011;35483;50.828;3.228;2023-03-01T01:01:00;11.38;;;10.25;;
49578;SDS011;35483;50.828;3.228;2023-03-01T01:03:26;12.23;;;10.45;;
49578;SDS011;35483;50.828;3.228;2023-03-01T01:05:52;12.23;;;11.02;;
49578;SDS011;35483;50.828;3.228;2023-03-01T01:08:18;11.88;;;10.60;;
49578;SDS011;35483;50.828;3.228;2023-03-01T01:10:45;11.75;;;10.60;;
49578;SDS011;35483;50.828;3.228;2023-03-01T01:13:11;11.23;;;10.10;;
49578;SDS011;35483;50.828;3.228;2023-03-01T01:15:38;10.90;;;9.75;;
49578;SDS011;35483;50.828;3.228;2023-03-01T01:18:04;11.63;;;10.50;;
49578;SDS011;35483;50.828;3.228;2023-03-01T01:20:30;11.15;;;9.95;;
49578;SDS011;35483;50.828;3.228;2023-03-01T01:22:56;11.70;;;10.27;;
49578;SDS011;35483;50.828;3.228;2023-03-01T01:25:21;11.13;;;10.02;;
49578;SDS011;35483;50.828;3.228;2023-03-01T01:27:50;10.98;;;9.88;;
49578;SDS011;35483;50.828;3.228;2023-03-01T01:30:16;12.18;;;10.32;;
49578;SDS011;35483;50.828;3.228;2023-03-01T01:32:42;11.35;;;10.25;;
49578;SDS011;35483;50.828;3.228;2023-03-01T01:35:08;12.02;;;10.15;;
49578;SDS011;35483;50.828;3.228;2023-03-01T01:37:34;11.18;;;9.98;;
49578;SDS011;35483;50.828;3.228;2023-03-01T01:40:01;10.85;;;9.75;;
49578;SDS011;35483;50.828;3.228;2023-03-01T01:42:31;11.55;;;10.35;;
49578;SDS011;35483;50.828;3.228;2023-03-01T01:47:53;10.73;;;9.63;;
49578;SDS011;35483;50.828;3.228;2023-03-01T01:50:22;11.25;;;9.55;;
49578;SDS011;35483;50.828;3.228;2023-03-01T01:52:48;11.13;;;10.02;;
49578;SDS011;35483;50.828;3.228;2023-03-01T01:55:21;11.68;;;10.48;;
49578;SDS011;35483;50.828;3.228;2023-03-01T01:57:53;12.63;;;10.82;;
49578;SDS011;35483;50.828;3.228;2023-03-01T02:00:23;11.52;;;10.32;;
49578;SDS011;35483;50.828;3.228;2023-03-01T02:02:54;11.40;;;10.25;;
49578;SDS011;35483;50.828;3.228;2023-03-01T02:05:47;12.85;;;11.13;;
49578;SDS011;35483;50.828;3.228;2023-03-01T02:08:38;11.50;;;10.18;;
49578;SDS011;35483;50.828;3.228;2023-03-01T02:11:07;12.68;;;10.75;;
49578;SDS011;35483;50.828;3.228;2023-03-01T02:13:35;12.55;;;11.25;;
49578;SDS011;35483;50.828;3.228;2023-03-01T02:16:03;12.48;;;11.27;;
49578;SDS011;35483;50.828;3.228;2023-03-01T02:18:30;13.05;;;11.75;;
49578;SDS011;35483;50.828;3.228;2023-03-01T02:20:59;12.07;;;10.88;;
49578;SDS011;35483;50.828;3.228;2023-03-01T02:23:36;13.10;;;11.80;;
49578;SDS011;35483;50.828;3.228;2023-03-01T02:27:03;13.20;;;11.90;;
49578;SDS011;35483;50.828;3.228;2023-03-01T02:29:04;13.77;;;12.25;;
49578;SDS011;35483;50.828;3.228;2023-03-01T02:31:30;13.32;;;12.02;;
49578;SDS011;35483;50.828;3.228;2023-03-01T02:34:09;13.82;;;12.43;;
49578;SDS011;35483;50.828;3.228;2023-03-01T02:36:48;13.85;;;12.48;;
49578;SDS011;35483;50.828;3.228;2023-03-01T02:39:21;14.90;;;13.40;;
49578;SDS011;35483;50.828;3.228;2023-03-01T02:42:09;14.70;;;13.07;;
49578;SDS011;35483;50.828;3.228;2023-03-01T02:44:38;14.50;;;13.07;;
49578;SDS011;35483;50.828;3.228;2023-03-01T02:47:04;15.10;;;13.57;;
49578;SDS011;35483;50.828;3.228;2023-03-01T02:49:32;15.20;;;13.57;;
49578;SDS011;35483;50.828;3.228;2023-03-01T02:52:08;16.08;;;14.30;;
49578;SDS011;35483;50.828;3.228;2023-03-01T02:55:04;16.02;;;13.80;;
49578;SDS011;35483;50.828;3.228;2023-03-01T02:57:40;14.85;;;13.38;;
49578;SDS011;35483;50.828;3.228;2023-03-01T03:00:08;15.80;;;13.95;;
49578;SDS011;35483;50.828;3.228;2023-03-01T03:02:43;16.42;;;14.48;;
49578;SDS011;35483;50.828;3.228;2023-03-01T03:05:15;16.42;;;14.77;;
49578;SDS011;35483;50.828;3.228;2023-03-01T03:07:46;16.70;;;15.02;;
49578;SDS011;35483;50.828;3.228;2023-03-01T03:10:16;17.67;;;15.95;;
49578;SDS011;35483;50.828;3.228;2023-03-01T03:12:48;17.35;;;15.52;;
49578;SDS011;35483;50.828;3.228;2023-03-01T03:15:22;17.30;;;15.50;;
49578;SDS011;35483;50.828;3.228;2023-03-01T03:17:49;16.67;;;14.90;;
49578;SDS011;35483;50.828;3.228;2023-03-01T03:20:17;18.05;;;16.17;;
49578;SDS011;35483;50.828;3.228;2023-03-01T03:22:49;18.83;;;16.92;;
49578;SDS011;35483;50.828;3.228;2023-03-01T03:25:17;19.42;;;17.42;;
49578;SDS011;35483;50.828;3.228;2023-03-01T03:27:44;19.40;;;17.40;;
49578;SDS011;35483;50.828;3.228;2023-03-01T03:30:12;21.23;;;18.50;;
49578;SDS011;35483;50.828;3.228;2023-03-01T03:32:42;19.83;;;17.92;;
49578;SDS011;35483;50.828;3.228;2023-03-01T03:35:22;20.20;;;18.20;;
49578;SDS011;35483;50.828;3.228;2023-03-01T03:37:50;20.50;;;18.48;;
49578;SDS011;35483;50.828;3.228;2023-03-01T03:40:41;19.73;;;17.67;;
49578;SDS011;35483;50.828;3.228;2023-03-01T03:43:18;20.30;;;18.10;;
49578;SDS011;35483;50.828;3.228;2023-03-01T03:45:45;20.60;;;18.42;;
49578;SDS011;35483;50.828;3.228;2023-03-01T03:48:12;20.65;;;18.55;;
49578;SDS011;35483;50.828;3.228;2023-03-01T03:50:39;21.92;;;19.73;;
49578;SDS011;35483;50.828;3.228;2023-03-01T03:53:07;21.88;;;18.98;;
49578;SDS011;35483;50.828;3.228;2023-03-01T03:55:36;20.55;;;18.35;;
49578;SDS011;35483;50.828;3.228;2023-03-01T03:58:05;22.48;;;18.80;;
49578;SDS011;35483;50.828;3.228;2023-03-01T04:00:32;21.67;;;19.48;;
49578;SDS011;35483;50.828;3.228;2023-03-01T04:03:00;20.75;;;18.65;;
49578;SDS011;35483;50.828;3.228;2023-03-01T04:05:26;20.80;;;18.70;;
49578;SDS011;35483;50.828;3.228;2023-03-01T04:07:52;21.58;;;19.35;;
49578;SDS011;35483;50.828;3.228;2023-03-01T04:10:26;21.17;;;19.00;;
49578;SDS011;35483;50.828;3.228;2023-03-01T04:12:55;20.83;;;18.63;;
49578;SDS011;35483;50.828;3.228;2023-03-01T04:15:21;21.30;;;19.20;;
49578;SDS011;35483;50.828;3.228;2023-03-01T04:17:49;21.73;;;19.42;;
49578;SDS011;35483;50.828;3.228;2023-03-01T04:20:17;21.27;;;19.08;;
49578;SDS011;35483;50.828;3.228;2023-03-01T04:22:51;20.75;;;18.52;;
49578;SDS011;35483;50.828;3.228;2023-03-01T04:25:22;21.55;;;19.13;;
49578;SDS011;35483;50.828;3.228;2023-03-01T04:27:49;21.15;;;18.95;;
49578;SDS011;35483;50.828;3.228;2023-03-01T04:30:14;20.63;;;18.52;;
49578;SDS011;35483;50.828;3.228;2023-03-01T04:32:40;22.05;;;19.52;;
49578;SDS011;35483;50.828;3.228;2023-03-01T04:35:06;21.52;;;19.15;;
49578;SDS011;35483;50.828;3.228;2023-03-01T04:37:32;21.02;;;18.95;;
49578;SDS011;35483;50.828;3.228;2023-03-01T04:39:59;22.30;;;19.88;;
49578;SDS011;35483;50.828;3.228;2023-03-01T04:42:25;23.55;;;19.58;;
49578;SDS011;35483;50.828;3.228;2023-03-01T04:44:51;23.83;;;19.35;;
49578;SDS011;35483;50.828;3.228;2023-03-01T04:47:17;22.27;;;19.98;;
49578;SDS011;35483;50.828;3.228;2023-03-01T04:49:43;21.45;;;19.00;;
49578;SDS011;35483;50.828;3.228;2023-03-01T04:52:09;21.23;;;19.05;;
49578;SDS011;35483;50.828;3.228;2023-03-01T04:54:35;21.25;;;19.08;;
49578;SDS011;35483;50.828;3.228;2023-03-01T04:57:01;21.73;;;19.40;;
49578;SDS011;35483;50.828;3.228;2023-03-01T04:59:28;22.15;;;19.63;;
49578;SDS011;35483;50.828;3.228;2023-03-01T05:01:55;21.83;;;19.48;;
49578;SDS011;35483;50.828;3.228;2023-03-01T05:04:21;21.85;;;19.52;;
49578;SDS011;35483;50.828;3.228;2023-03-01T05:06:48;21.75;;;19.50;;
49578;SDS011;35483;50.828;3.228;2023-03-01T05:09:14;22.80;;;20.33;;
49578;SDS011;35483;50.828;3.228;2023-03-01T05:11:40;25.05;;;21.05;;
49578;SDS011;35483;50.828;3.228;2023-03-01T05:14:06;29.05;;;20.15;;
49578;SDS011;35483;50.828;3.228;2023-03-01T05:16:33;24.65;;;20.42;;
49578;SDS011;35483;50.828;3.228;2023-03-01T05:18:59;24.10;;;21.08;;
49578;SDS011;35483;50.828;3.228;2023-03-01T05:21:25;24.48;;;21.63;;
49578;SDS011;35483;50.828;3.228;2023-03-01T05:23:51;23.45;;;20.92;;
49578;SDS011;35483;50.828;3.228;2023-03-01T05:26:18;24.27;;;21.25;;
49578;SDS011;35483;50.828;3.228;2023-03-01T05:28:47;23.70;;;21.23;;
49578;SDS011;35483;50.828;3.228;2023-03-01T05:31:15;25.08;;;21.50;;
49578;SDS011;35483;50.828;3.228;2023-03-01T05:33:40;26.30;;;22.55;;
49578;SDS011;35483;50.828;3.228;2023-03-01T05:36:08;25.55;;;21.63;;
49578;SDS011;35483;50.828;3.228;2023-03-01T05:38:35;25.38;;;22.17;;
49578;SDS011;35483;50.828;3.228;2023-03-01T05:44:13;24.85;;;21.80;;
49578;SDS011;35483;50.828;3.228;2023-03-01T05:46:38;26.48;;;21.73;;
49578;SDS011;35483;50.828;3.228;2023-03-01T05:49:04;24.20;;;20.83;;
49578;SDS011;35483;50.828;3.228;2023-03-01T05:51:30;25.67;;;21.60;;
49578;SDS011;35483;50.828;3.228;2023-03-01T05:53:56;24.50;;;20.88;;
49578;SDS011;35483;50.828;3.228;2023-03-01T05:56:21;24.83;;;21.95;;
49578;SDS011;35483;50.828;3.228;2023-03-01T05:58:50;24.85;;;21.02;;
49578;SDS011;35483;50.828;3.228;2023-03-01T06:01:16;24.20;;;20.70;;
49578;SDS011;35483;50.828;3.228;2023-03-01T06:03:41;25.60;;;21.63;;
49578;SDS011;35483;50.828;3.228;2023-03-01T06:06:07;25.10;;;21.35;;
49578;SDS011;35483;50.828;3.228;2023-03-01T06:08:33;23.25;;;20.75;;
49578;SDS011;35483;50.828;3.228;2023-03-01T06:10:59;23.92;;;21.23;;
49578;SDS011;35483;50.828;3.228;2023-03-01T06:13:24;24.38;;;20.45;;
49578;SDS011;35483;50.828;3.228;2023-03-01T06:15:50;28.08;;;20.83;;
49578;SDS011;35483;50.828;3.228;2023-03-01T06:18:16;23.58;;;20.60;;
49578;SDS011;35483;50.828;3.228;2023-03-01T06:20:42;24.80;;;19.58;;
49578;SDS011;35483;50.828;3.228;2023-03-01T06:23:08;22.95;;;19.58;;
49578;SDS011;35483;50.828;3.228;2023-03-01T06:25:34;25.45;;;20.42;;
49578;SDS011;35483;50.828;3.228;2023-03-01T06:27:59;26.27;;;20.52;;
49578;SDS011;35483;50.828;3.228;2023-03-01T06:30:25;23.77;;;20.85;;
49578;SDS011;35483;50.828;3.228;2023-03-01T06:32:51;27.00;;;21.55;;
49578;SDS011;35483;50.828;3.228;2023-03-01T06:35:18;22.58;;;19.73;;
49578;SDS011;35483;50.828;3.228;2023-03-01T06:37:44;23.15;;;20.10;;
49578;SDS011;35483;50.828;3.228;2023-03-01T06:40:11;26.55;;;20.95;;
49578;SDS011;35483;50.828;3.228;2023-03-01T06:42:39;26.90;;;20.63;;
49578;SDS011;35483;50.828;3.228;2023-03-01T06:45:07;34.20;;;21.55;;
49578;SDS011;35483;50.828;3.228;2023-03-01T06:47:33;26.92;;;22.20;;
49578;SDS011;35483;50.828;3.228;2023-03-01T06:50:00;27.00;;;21.67;;
49578;SDS011;35483;50.828;3.228;2023-03-01T06:52:26;25.77;;;21.50;;
49578;SDS011;35483;50.828;3.228;2023-03-01T06:54:52;24.35;;;21.42;;
49578;SDS011;35483;50.828;3.228;2023-03-01T06:57:18;27.42;;;22.23;;
49578;SDS011;35483;50.828;3.228;2023-03-01T06:59:43;26.38;;;23.25;;
49578;SDS011;35483;50.828;3.228;2023-03-01T07:02:12;26.40;;;22.17;;
49578;SDS011;35483;50.828;3.228;2023-03-01T07:04:40;24.05;;;19.95;;
49578;SDS011;35483;50.828;3.228;2023-03-01T07:07:06;23.35;;;20.85;;
49578;SDS011;35483;50.828;3.228;2023-03-01T07:09:32;23.58;;;20.30;;
49578;SDS011;35483;50.828;3.228;2023-03-01T07:11:57;21.90;;;19.52;;
49578;SDS011;35483;50.828;3.228;2023-03-01T07:14:25;24.85;;;19.13;;
49578;SDS011;35483;50.828;3.228;2023-03-01T07:16:52;25.05;;;18.98;;
49578;SDS011;35483;50.828;3.228;2023-03-01T07:19:18;21.65;;;19.35;;
49578;SDS011;35483;50.828;3.228;2023-03-01T07:21:44;23.75;;;20.20;;
49578;SDS011;35483;50.828;3.228;2023-03-01T07:24:10;21.80;;;19.30;;
49578;SDS011;35483;50.828;3.228;2023-03-01T07:26:36;23.88;;;20.52;;
49578;SDS011;35483;50.828;3.228;2023-03-01T07:29:03;27.40;;;20.35;;
49578;SDS011;35483;50.828;3.228;2023-03-01T07:31:30;25.15;;;20.95;;
49578;SDS011;35483;50.828;3.228;2023-03-01T07:33:56;22.05;;;19.63;;
49578;SDS011;35483;50.828;3.228;2023-03-01T07:36:22;26.05;;;20.38;;
49578;SDS011;35483;50.828;3.228;2023-03-01T07:38:49;22.92;;;19.35;;
49578;SDS011;35483;50.828;3.228;2023-03-01T07:41:14;24.33;;;20.27;;
49578;SDS011;35483;50.828;3.228;2023-03-01T07:43:40;23.58;;;19.63;;
49578;SDS011;35483;50.828;3.228;2023-03-01T07:46:06;22.48;;;19.08;;
49578;SDS011;35483;50.828;3.228;2023-03-01T07:48:32;23.85;;;18.95;;
49578;SDS011;35483;50.828;3.228;2023-03-01T07:51:02;21.45;;;19.15;;
49578;SDS011;35483;50.828;3.228;2023-03-01T07:53:30;21.88;;;19.17;;
49578;SDS011;35483;50.828;3.228;2023-03-01T07:56:01;20.73;;;18.45;;
49578;SDS011;35483;50.828;3.228;2023-03-01T07:58:27;21.63;;;17.38;;
49578;SDS011;35483;50.828;3.228;2023-03-01T08:00:52;18.58;;;16.58;;
49578;SDS011;35483;50.828;3.228;2023-03-01T08:03:18;18.35;;;15.30;;
49578;SDS011;35483;50.828;3.228;2023-03-01T08:05:45;18.48;;;15.13;;
49578;SDS011;35483;50.828;3.228;2023-03-01T08:08:10;18.02;;;15.00;;
49578;SDS011;35483;50.828;3.228;2023-03-01T08:10:36;17.20;;;14.85;;
49578;SDS011;35483;50.828;3.228;2023-03-01T08:13:02;19.70;;;15.50;;
49578;SDS011;35483;50.828;3.228;2023-03-01T08:15:28;17.10;;;14.48;;
49578;SDS011;35483;50.828;3.228;2023-03-01T08:17:53;19.02;;;14.90;;
49578;SDS011;35483;50.828;3.228;2023-03-01T08:20:19;18.00;;;14.27;;
49578;SDS011;35483;50.828;3.228;2023-03-01T08:22:45;15.68;;;13.57;;
49578;SDS011;35483;50.828;3.228;2023-03-01T08:25:11;17.88;;;14.13;;
49578;SDS011;35483;50.828;3.228;2023-03-01T08:27:37;16.73;;;13.68;;
49578;SDS011;35483;50.828;3.228;2023-03-01T08:30:03;14.75;;;13.15;;
49578;SDS011;35483;50.828;3.228;2023-03-01T08:32:29;17.20;;;13.07;;
49578;SDS011;35483;50.828;3.228;2023-03-01T08:34:54;16.92;;;12.90;;
49578;SDS011;35483;50.828;3.228;2023-03-01T08:37:20;17.67;;;13.38;;
49578;SDS011;35483;50.828;3.228;2023-03-01T08:39:46;23.77;;;13.30;;
49578;SDS011;35483;50.828;3.228;2023-03-01T08:42:12;17.10;;;13.13;;
49578;SDS011;35483;50.828;3.228;2023-03-01T08:44:38;16.58;;;12.63;;
49578;SDS011;35483;50.828;3.228;2023-03-01T08:47:03;14.73;;;12.93;;
49578;SDS011;35483;50.828;3.228;2023-03-01T08:49:30;14.65;;;11.80;;
49578;SDS011;35483;50.828;3.228;2023-03-01T08:51:57;16.13;;;12.38;;
49578;SDS011;35483;50.828;3.228;2023-03-01T08:54:23;17.13;;;12.15;;
49578;SDS011;35483;50.828;3.228;2023-03-01T08:56:49;20.15;;;13.07;;
49578;SDS011;35483;50.828;3.228;2023-03-01T08:59:16;18.73;;;11.75;;
49578;SDS011;35483;50.828;3.228;2023-03-01T09:01:42;14.13;;;11.27;;
49578;SDS011;35483;50.828;3.228;2023-03-01T09:04:11;12.55;;;10.55;;
49578;SDS011;35483;50.828;3.228;2023-03-01T09:06:38;14.68;;;10.95;;
49578;SDS011;35483;50.828;3.228;2023-03-01T09:09:04;16.92;;;10.90;;
49578;SDS011;35483;50.828;3.228;2023-03-01T09:11:30;15.68;;;11.43;;
49578;SDS011;35483;50.828;3.228;2023-03-01T09:13:56;12.60;;;11.00;;
49578;SDS011;35483;50.828;3.228;2023-03-01T09:16:22;19.52;;;11.75;;
49578;SDS011;35483;50.828;3.228;2023-03-01T09:18:49;13.25;;;11.23;;
49578;SDS011;35483;50.828;3.228;2023-03-01T09:21:17;11.45;;;10.23;;
49578;SDS011;35483;50.828;3.228;2023-03-01T09:23:44;12.95;;;10.27;;
49578;SDS011;35483;50.828;3.228;2023-03-01T09:26:15;15.90;;;9.80;;
49578;SDS011;35483;50.828;3.228;2023-03-01T09:28:46;14.45;;;9.77;;
49578;SDS011;35483;50.828;3.228;2023-03-01T09:31:14;12.95;;;10.48;;
49578;SDS011;35483;50.828;3.228;2023-03-01T09:33:41;11.85;;;10.00;;
49578;SDS011;35483;50.828;3.228;2023-03-01T09:36:12;11.48;;;9.75;;
49578;SDS011;35483;50.828;3.228;2023-03-01T09:38:39;12.60;;;10.00;;
49578;SDS011;35483;50.828;3.228;2023-03-01T09:41:18;13.45;;;10.63;;
49578;SDS011;35483;50.828;3.228;2023-03-01T09:46:31;12.13;;;10.30;;
49578;SDS011;35483;50.828;3.228;2023-03-01T09:49:06;14.70;;;10.30;;
49578;SDS011;35483;50.828;3.228;2023-03-01T09:51:37;13.40;;;9.77;;
49578;SDS011;35483;50.828;3.228;2023-03-01T09:54:03;12.23;;;10.18;;
49578;SDS011;35483;50.828;3.228;2023-03-01T09:56:34;11.38;;;9.35;;
49578;SDS011;35483;50.828;3.228;2023-03-01T09:59:10;11.13;;;9.20;;
49578;SDS011;35483;50.828;3.228;2023-03-01T10:04:46;11.52;;;8.95;;
49578;SDS011;35483;50.828;3.228;2023-03-01T10:10:16;12.18;;;9.20;;
49578;SDS011;35483;50.828;3.228;2023-03-01T10:12:56;12.10;;;9.85;;
49578;SDS011;35483;50.828;3.228;2023-03-01T10:15:30;9.10;;;8.20;;
49578;SDS011;35483;50.828;3.228;2023-03-01T10:18:09;11.38;;;8.65;;
49578;SDS011;35483;50.828;3.228;2023-03-01T10:23:13;9.27;;;7.78;;
49578;SDS011;35483;50.828;3.228;2023-03-01T10:31:16;13.85;;;8.10;;
49578;SDS011;35483;50.828;3.228;2023-03-01T10:33:45;8.85;;;7.78;;
49578;SDS011;35483;50.828;3.228;2023-03-01T10:36:12;8.95;;;7.40;;
49578;SDS011;35483;50.828;3.228;2023-03-01T10:38:52;9.32;;;7.10;;
49578;SDS011;35483;50.828;3.228;2023-03-01T10:41:20;8.32;;;7.32;;
49578;SDS011;35483;50.828;3.228;2023-03-01T10:43:56;7.80;;;6.97;;
49578;SDS011;35483;50.828;3.228;2023-03-01T10:46:36;9.48;;;7.43;;
49578;SDS011;35483;50.828;3.228;2023-03-01T10:49:15;9.30;;;7.50;;
49578;SDS011;35483;50.828;3.228;2023-03-01T10:51:46;8.48;;;6.93;;
49578;SDS011;35483;50.828;3.228;2023-03-01T10:54:17;12.00;;;7.20;;
49578;SDS011;35483;50.828;3.228;2023-03-01T10:56:51;12.98;;;6.88;;
49578;SDS011;35483;50.828;3.228;2023-03-01T10:59:26;8.82;;;6.70;;
49578;SDS011;35483;50.828;3.228;2023-03-01T11:02:13;11.45;;;7.25;;
49578;SDS011;35483;50.828;3.228;2023-03-01T11:04:58;8.40;;;7.32;;
49578;SDS011;35483;50.828;3.228;2023-03-01T11:10:25;8.88;;;7.75;;
49578;SDS011;35483;50.828;3.228;2023-03-01T11:12:53;9.02;;;7.35;;
49578;SDS011;35483;50.828;3.228;2023-03-01T11:15:30;9.65;;;7.78;;
49578;SDS011;35483;50.828;3.228;2023-03-01T11:17:56;7.85;;;7.05;;
49578;SDS011;35483;50.828;3.228;2023-03-01T11:23:01;10.27;;;6.88;;
49578;SDS011;35483;50.828;3.228;2023-03-01T11:25:33;9.60;;;7.63;;
49578;SDS011;35483;50.828;3.228;2023-03-01T11:28:03;9.45;;;8.13;;
49578;SDS011;35483;50.828;3.228;2023-03-01T11:30:32;8.75;;;7.63;;
49578;SDS011;35483;50.828;3.228;2023-03-01T11:33:08;9.80;;;7.50;;
49578;SDS011;35483;50.828;3.228;2023-03-01T11:35:42;10.15;;;8.02;;
49578;SDS011;35483;50.828;3.228;2023-03-01T11:38:25;9.30;;;7.80;;
49578;SDS011;35483;50.828;3.228;2023-03-01T11:48:56;11.27;;;8.02;;
49578;SDS011;35483;50.828;3.228;2023-03-01T11:52:45;8.60;;;7.28;;
49578;SDS011;35483;50.828;3.228;2023-03-01T12:06:22;9.10;;;7.28;;
49578;SDS011;35483;50.828;3.228;2023-03-01T12:09:16;7.57;;;6.65;;
49578;SDS011;35483;50.828;3.228;2023-03-01T12:11:55;12.37;;;7.73;;
49578;SDS011;35483;50.828;3.228;2023-03-01T12:22:31;8.98;;;7.15;;
49578;SDS011;35483;50.828;3.228;2023-03-01T12:33:23;7.57;;;6.47;;
49578;SDS011;35483;50.828;3.228;2023-03-01T12:35:54;8.23;;;6.65;;
49578;SDS011;35483;50.828;3.228;2023-03-01T12:38:37;9.48;;;6.63;;
49578;SDS011;35483;50.828;3.228;2023-03-01T12:46:52;8.32;;;6.85;;
49578;SDS011;35483;50.828;3.228;2023-03-01T12:49:38;8.13;;;6.05;;
49578;SDS011;35483;50.828;3.228;2023-03-01T12:55:26;8.77;;;6.30;;
49578;SDS011;35483;50.828;3.228;2023-03-01T12:58:07;8.18;;;6.40;;
49578;SDS011;35483;50.828;3.228;2023-03-01T13:06:22;8.20;;;6.60;;
49578;SDS011;35483;50.828;3.228;2023-03-01T13:11:43;7.10;;;6.18;;
49578;SDS011;35483;50.828;3.228;2023-03-01T13:16:48;8.27;;;6.40;;
49578;SDS011;35483;50.828;3.228;2023-03-01T13:19:18;7.88;;;6.90;;
49578;SDS011;35483;50.828;3.228;2023-03-01T13:21:49;8.52;;;6.18;;
49578;SDS011;35483;50.828;3.228;2023-03-01T13:27:39;9.65;;;7.38;;
49578;SDS011;35483;50.828;3.228;2023-03-01T13:32:19;8.35;;;7.45;;
49578;SDS011;35483;50.828;3.228;2023-03-01T13:37:39;8.43;;;6.70;;
49578;SDS011;35483;50.828;3.228;2023-03-01T13:42:52;8.25;;;5.85;;
49578;SDS011;35483;50.828;3.228;2023-03-01T13:45:52;7.40;;;6.22;;
49578;SDS011;35483;50.828;3.228;2023-03-01T13:48:45;8.00;;;6.53;;
49578;SDS011;35483;50.828;3.228;2023-03-01T13:51:04;6.63;;;5.70;;
49578;SDS011;35483;50.828;3.228;2023-03-01T13:53:36;8.05;;;6.60;;
49578;SDS011;35483;50.828;3.228;2023-03-01T13:56:15;7.72;;;6.55;;
49578;SDS011;35483;50.828;3.228;2023-03-01T13:58:52;7.28;;;6.25;;
49578;SDS011;35483;50.828;3.228;2023-03-01T14:01:31;8.15;;;6.70;;
49578;SDS011;35483;50.828;3.228;2023-03-01T14:03:59;6.68;;;5.57;;
49578;SDS011;35483;50.828;3.228;2023-03-01T14:06:27;9.00;;;5.63;;
49578;SDS011;35483;50.828;3.228;2023-03-01T14:20:14;7.85;;;6.88;;
49578;SDS011;35483;50.828;3.228;2023-03-01T14:22:46;9.23;;;6.40;;
49578;SDS011;35483;50.828;3.228;2023-03-01T14:28:01;8.82;;;6.57;;
49578;SDS011;35483;50.828;3.228;2023-03-01T14:30:49;7.78;;;6.95;;
49578;SDS011;35483;50.828;3.228;2023-03-01T14:33:24;9.20;;;6.88;;
49578;SDS011;35483;50.828;3.228;2023-03-01T14:38:33;9.52;;;6.95;;
49578;SDS011;35483;50.828;3.228;2023-03-01T14:41:06;9.07;;;6.68;;
49578;SDS011;35483;50.828;3.228;2023-03-01T14:43:35;7.17;;;5.80;;
49578;SDS011;35483;50.828;3.228;2023-03-01T14:46:02;7.90;;;5.95;;
49578;SDS011;35483;50.828;3.228;2023-03-01T14:48:28;7.38;;;6.25;;
49578;SDS011;35483;50.828;3.228;2023-03-01T14:50:56;9.50;;;6.13;;
49578;SDS011;35483;50.828;3.228;2023-03-01T14:53:26;8.90;;;6.13;;
49578;SDS011;35483;50.828;3.228;2023-03-01T14:55:54;7.90;;;6.03;;
49578;SDS011;35483;50.828;3.228;2023-03-01T14:58:23;8.57;;;5.75;;
49578;SDS011;35483;50.828;3.228;2023-03-01T15:00:51;8.38;;;6.18;;
49578;SDS011;35483;50.828;3.228;2023-03-01T15:03:22;6.72;;;6.05;;
49578;SDS011;35483;50.828;3.228;2023-03-01T15:05:57;7.22;;;6.20;;
49578;SDS011;35483;50.828;3.228;2023-03-01T15:08:26;7.47;;;5.70;;
49578;SDS011;35483;50.828;3.228;2023-03-01T15:13:39;8.68;;;5.35;;
49578;SDS011;35483;50.828;3.228;2023-03-01T15:16:12;9.23;;;6.25;;
49578;SDS011;35483;50.828;3.228;2023-03-01T15:18:46;7.90;;;6.43;;
49578;SDS011;35483;50.828;3.228;2023-03-01T15:21:18;7.83;;;5.77;;
49578;SDS011;35483;50.828;3.228;2023-03-01T15:23:52;8.37;;;5.50;;
49578;SDS011;35483;50.828;3.228;2023-03-01T15:26:22;8.88;;;6.00;;
49578;SDS011;35483;50.828;3.228;2023-03-01T15:28:51;8.20;;;5.80;;
49578;SDS011;35483;50.828;3.228;2023-03-01T15:31:20;6.68;;;5.93;;
49578;SDS011;35483;50.828;3.228;2023-03-01T15:33:50;8.85;;;6.93;;
49578;SDS011;35483;50.828;3.228;2023-03-01T15:36:33;8.90;;;7.15;;
49578;SDS011;35483;50.828;3.228;2023-03-01T15:39:04;8.13;;;6.93;;
49578;SDS011;35483;50.828;3.228;2023-03-01T15:42:04;9.20;;;6.70;;
49578;SDS011;35483;50.828;3.228;2023-03-01T15:44:27;6.55;;;5.85;;
49578;SDS011;35483;50.828;3.228;2023-03-01T15:46:53;8.25;;;6.72;;
49578;SDS011;35483;50.828;3.228;2023-03-01T15:49:27;8.27;;;6.95;;
49578;SDS011;35483;50.828;3.228;2023-03-01T15:51:58;8.63;;;6.35;;
49578;SDS011;35483;50.828;3.228;2023-03-01T15:54:24;9.45;;;6.97;;
49578;SDS011;35483;50.828;3.228;2023-03-01T15:56:51;8.77;;;6.43;;
49578;SDS011;35483;50.828;3.228;2023-03-01T15:59:17;7.80;;;6.97;;
49578;SDS011;35483;50.828;3.228;2023-03-01T16:01:44;9.07;;;6.43;;
49578;SDS011;35483;50.828;3.228;2023-03-01T16:04:11;9.27;;;6.68;;
49578;SDS011;35483;50.828;3.228;2023-03-01T16:06:41;10.05;;;7.38;;
49578;SDS011;35483;50.828;3.228;2023-03-01T16:09:07;7.57;;;6.28;;
49578;SDS011;35483;50.828;3.228;2023-03-01T16:11:33;10.68;;;6.75;;
49578;SDS011;35483;50.828;3.228;2023-03-01T16:14:01;8.38;;;6.55;;
49578;SDS011;35483;50.828;3.228;2023-03-01T16:16:27;9.75;;;7.00;;
49578;SDS011;35483;50.828;3.228;2023-03-01T16:18:54;7.82;;;6.72;;
49578;SDS011;35483;50.828;3.228;2023-03-01T16:21:21;8.35;;;6.32;;
49578;SDS011;35483;50.828;3.228;2023-03-01T16:23:49;9.68;;;6.93;;
49578;SDS011;35483;50.828;3.228;2023-03-01T16:26:16;9.27;;;6.72;;
49578;SDS011;35483;50.828;3.228;2023-03-01T16:28:42;7.45;;;6.43;;
49578;SDS011;35483;50.828;3.228;2023-03-01T16:31:08;9.07;;;7.10;;
49578;SDS011;35483;50.828;3.228;2023-03-01T16:33:34;9.65;;;7.20;;
49578;SDS011;35483;50.828;3.228;2023-03-01T16:36:11;9.27;;;6.47;;
49578;SDS011;35483;50.828;3.228;2023-03-01T16:38:37;11.10;;;7.40;;
49578;SDS011;35483;50.828;3.228;2023-03-01T16:41:04;10.02;;;7.95;;